NCAR-RAP Real-Time Weather Data

Output produced by METARs form (08 May 2021  02:17 UTC)
found at http://weather.rap.ucar.edu/surface/
 
KCVG 080152Z 20007KT 9SM -RA FEW049 BKN060 OVC075 09/07 A2993 RMK AO2 LTG DSNT SE RAB0059 TSB0059E39 SLP136 WSHFT 0103 TS MOV SE P0014 T00940072 $
KCVG 080148Z 20007KT 9SM -RA BKN060 OVC075 09/07 A2993 RMK AO2 LTG DSNT E AND SE RAB0059 TSB0059E39 WSHFT 0103 TS MOV SE P0014 $
KCVG 080139Z 22005KT 10SM VCTS -RA SCT034 BKN060 OVC075 09/07 A2994 RMK AO2 LTG DSNT E-S RAB0059 TSB0059E39 WSHFT 0103 OCNL LTGIC DSNT SE TS MOV SE P0013 T00940067 $
KCVG 080123Z 00000KT 5SM TSRA BR BKN036CB BKN043 OVC070 10/08 A2994 RMK AO2 LTG DSNT SW RAB0059 TSB0059 WSHFT 0103 OCNL LTGCC S TS S-SW MOV SE P0012 T01000078 $
KCVG 080116Z 31003KT 2 1/2SM +TSRA BR SCT042CB OVC055 10/08 A2996 RMK AO2 LTG DSNT SW RAB0059 TSB0059 WSHFT 0103 FRQ LTGCCCGIC SW TS OHD-SW MOV SE P0002 T01000078 $
KCVG 080110Z 34012G18KT 8SM -TSRA SCT042CB OVC055 10/08 A2996 RMK AO2 RAB0059 TSB0059 PRESRR WSHFT 0103 FRQ LTGCCCGIC SW-W TS SW-W MOV SE P0001 T01000078 $
KCVG 080100Z 28004KT 10SM -TSRA FEW046CB BKN065 BKN090 10/07 A2993 RMK AO2 LTG DSNT W RAB0059 TSB0059 OCNL LTGCC W TS W-NW MOV SE P0000 T01000072 $
KCVG 080052Z 18005KT 10SM FEW046 BKN065 BKN090 10/07 A2992 RMK AO2 LTG DSNT W RAB2355E48 SLP130 OCNL LTGIC DSNT NW CB DSNT W-NW P0001 T01000072 $
KCVG 072352Z 24003KT 10SM FEW049 SCT065 OVC095 11/07 A2994 RMK AO2 RAE34 SLP139 VCSH E AND NW BINOVC P0001 60001 T01060072 10172 20106 58005
KCVG 072252Z 26014G24KT 10SM -RA OVC055 13/04 A2997 RMK AO2 RAB21 SLP147 VIS LWR S-SW P0000 T01280044
KCVG 072152Z 23009KT 10SM FEW045 FEW090 SCT160 BKN250 15/03 A2994 RMK AO2 SLP137 T01500028
KCVG 072052Z 19008KT 10SM FEW050 FEW095 FEW200 15/04 A2996 RMK AO2 RAB17E31 SLP144 GRDL WSHFT 2020 TCU DSNT SE P0000 60000 T01500044 56023
KCVG 071952Z 27010KT 10SM FEW060 BKN100 BKN200 17/02 A2998 RMK AO2 SLP149 VIRGA NE AND SW MDT CU NE-E T01670017
KCVG 071852Z 28009KT 10SM SCT055 SCT110 BKN250 16/03 A3000 RMK AO2 SLP157 VIRGA S MDT CU NW-N T01610033
KCVG 071752Z 26007KT 10SM FEW045 SCT060 BKN070 15/02 A3003 RMK AO2 SLP166 T01500022 10156 20061 58008
KCVG 071652Z 27012KT 10SM SCT040 BKN050 14/04 A3005 RMK AO2 SLP174 T01390044
KCVG 071552Z COR VRB06KT 10SM FEW035 14/04 A3005 RMK AO2 SLP174 T01390044
KCVG 071452Z 31004KT 10SM CLR 12/04 A3006 RMK AO2 SLP176 T01170039 51006
KCVG 071352Z 29005KT 10SM FEW070 09/04 A3005 RMK AO2 SLP176 T00940044
KCVG 071252Z 30006KT 10SM FEW009 SCT075 BKN095 08/04 A3006 RMK AO2 SLP176 T00780044
KCVG 071241Z 31004KT 8SM SCT009 BKN095 08/04 A3005 RMK AO2 T00780044
KCVG 071152Z 30006KT 6SM BR BKN008 06/04 A3004 RMK AO2 SLP170 BKN V SCT 60002 70019 T00610039 10089 20056 53017
KCVG 071052Z 30008KT 5SM BR OVC008 06/04 A3001 RMK AO2 SLP161 BINOVC T00560039
KCVG 071023Z 30009KT 6SM BR OVC009 06/04 A3000 RMK AO2 T00560039